createdAt,value
2023-01-18T00:00:39.284Z,8.53
2023-01-18T00:03:08.872Z,8.54
2023-01-18T00:05:39.918Z,8.46
2023-01-18T00:08:10.629Z,8.44
2023-01-18T00:10:39.211Z,8.47
2023-01-18T00:13:08.544Z,8.49
2023-01-18T00:15:37.253Z,8.48
2023-01-18T00:18:05.432Z,8.48
2023-01-18T00:20:33.917Z,8.49
2023-01-18T00:23:02.792Z,8.52
2023-01-18T00:25:31.434Z,8.51
2023-01-18T00:27:59.526Z,8.54
2023-01-18T00:30:29.683Z,8.50
2023-01-18T00:33:00.124Z,8.48
2023-01-18T00:35:28.523Z,8.47
2023-01-18T00:37:56.510Z,8.46
2023-01-18T00:40:28.450Z,8.37
2023-01-18T00:43:13.975Z,8.33
2023-01-18T00:45:43.799Z,8.32
2023-01-18T00:48:11.738Z,8.32
2023-01-18T00:50:39.758Z,8.36
2023-01-18T00:53:07.704Z,8.43
2023-01-18T00:55:35.630Z,8.43
2023-01-18T00:58:03.524Z,8.37
2023-01-18T01:00:32.622Z,8.40
2023-01-18T01:03:02.021Z,8.46
2023-01-18T01:05:47.548Z,8.54
2023-01-18T01:08:17.970Z,8.64
2023-01-18T01:10:47.314Z,8.72
2023-01-18T01:13:34.223Z,8.79
2023-01-18T01:16:23.530Z,8.83
2023-01-18T01:19:10.477Z,8.85
2023-01-18T01:21:56.169Z,8.84
2023-01-18T01:24:41.920Z,8.83
2023-01-18T01:27:10.716Z,8.86
2023-01-18T01:29:38.928Z,8.87
2023-01-18T01:32:07.265Z,8.71
2023-01-18T01:34:37.112Z,8.68
2023-01-18T01:37:05.792Z,8.70
2023-01-18T01:39:33.808Z,8.69
2023-01-18T01:42:01.943Z,8.70
2023-01-18T01:44:57.003Z,8.70
2023-01-18T01:47:38.531Z,8.72
2023-01-18T01:50:16.929Z,8.70
2023-01-18T01:52:48.001Z,8.69
2023-01-18T01:55:23.329Z,8.65
2023-01-18T01:57:56.681Z,8.63
2023-01-18T02:00:25.541Z,8.60
2023-01-18T02:02:57.311Z,8.57
2023-01-18T02:05:28.043Z,8.57
2023-01-18T02:07:59.630Z,8.51
2023-01-18T02:10:27.935Z,8.44
2023-01-18T02:12:57.746Z,8.35
2023-01-18T02:15:39.993Z,8.28
2023-01-18T02:18:21.352Z,8.28
2023-01-18T02:21:14.037Z,8.20
2023-01-18T02:24:06.376Z,8.19
2023-01-18T02:27:00.636Z,8.18
2023-01-18T02:29:54.802Z,8.17
2023-01-18T02:32:30.716Z,8.19
2023-01-18T02:35:08.461Z,8.21
2023-01-18T02:37:45.723Z,8.21
2023-01-18T02:40:20.456Z,8.22
2023-01-18T02:43:07.310Z,8.23
2023-01-18T02:46:00.274Z,8.23
2023-01-18T02:48:36.602Z,8.23
2023-01-18T02:51:05.579Z,8.21
2023-01-18T02:53:37.967Z,8.13
2023-01-18T02:56:12.137Z,8.07
2023-01-18T02:58:44.453Z,8.03
2023-01-18T03:01:18.565Z,7.99
2023-01-18T03:03:50.221Z,7.94
2023-01-18T03:06:20.857Z,7.91
2023-01-18T03:08:52.209Z,7.87
2023-01-18T03:11:28.066Z,7.80
2023-01-18T03:14:04.384Z,7.67
2023-01-18T03:16:58.447Z,7.57
2023-01-18T03:20:03.984Z,7.38
2023-01-18T03:22:54.059Z,7.30
2023-01-18T03:25:27.757Z,7.29
2023-01-18T03:28:15.283Z,7.30
2023-01-18T03:31:01.629Z,7.31
2023-01-18T03:33:47.037Z,7.30
2023-01-18T03:36:18.804Z,7.34
2023-01-18T03:38:51.650Z,7.37
2023-01-18T03:41:22.605Z,7.36
2023-01-18T03:43:53.073Z,7.38
2023-01-18T03:46:24.848Z,7.38
2023-01-18T03:48:54.251Z,7.37
2023-01-18T03:51:27.490Z,7.37
2023-01-18T03:54:05.985Z,7.39
2023-01-18T03:56:43.802Z,7.43
2023-01-18T03:59:11.961Z,7.47
2023-01-18T04:01:40.143Z,7.46
2023-01-18T04:04:09.455Z,7.46
2023-01-18T04:06:37.710Z,7.46
2023-01-18T04:09:05.695Z,7.45
2023-01-18T04:11:33.622Z,7.38
2023-01-18T04:14:01.637Z,7.33
2023-01-18T04:16:29.579Z,7.30
2023-01-18T04:18:57.599Z,7.28
2023-01-18T04:21:26.975Z,7.26
2023-01-18T04:23:54.991Z,7.30
2023-01-18T04:26:22.935Z,7.35
2023-01-18T04:28:50.874Z,7.39
2023-01-18T04:31:18.888Z,7.43
2023-01-18T04:33:46.927Z,7.45
2023-01-18T04:36:14.956Z,7.46
2023-01-18T04:38:44.332Z,7.46
2023-01-18T04:41:12.571Z,7.46
2023-01-18T04:43:40.467Z,7.48
2023-01-18T04:46:08.463Z,7.49
2023-01-18T04:48:36.370Z,7.48
2023-01-18T04:51:04.358Z,7.45
2023-01-18T04:53:32.235Z,7.39
2023-01-18T04:56:01.602Z,7.35
2023-01-18T04:58:29.541Z,7.33
2023-01-18T05:01:02.112Z,7.27
2023-01-18T05:03:30.199Z,7.30
2023-01-18T05:05:58.340Z,7.32
2023-01-18T05:08:26.268Z,7.33
2023-01-18T05:10:54.327Z,7.38
2023-01-18T05:13:23.614Z,7.36
2023-01-18T05:15:51.581Z,7.32
2023-01-18T05:18:19.487Z,7.30
2023-01-18T05:20:48.249Z,7.26
2023-01-18T05:23:16.275Z,7.27
2023-01-18T05:25:44.600Z,7.24
2023-01-18T05:28:12.546Z,7.22
2023-01-18T05:30:43.683Z,7.21
2023-01-18T05:33:11.592Z,7.22
2023-01-18T05:35:40.066Z,7.19
2023-01-18T05:38:08.727Z,7.18
2023-01-18T05:40:36.640Z,7.18
2023-01-18T05:43:04.553Z,7.10
2023-01-18T05:45:32.510Z,7.03
2023-01-18T05:48:01.895Z,6.96
2023-01-18T05:50:29.822Z,7.02
2023-01-18T05:52:58.906Z,7.09
2023-01-18T05:55:27.828Z,7.17
2023-01-18T05:57:55.847Z,7.23
2023-01-18T06:00:24.320Z,7.33
2023-01-18T06:02:53.691Z,7.47
2023-01-18T06:05:24.187Z,7.60
2023-01-18T06:07:52.418Z,7.74
2023-01-18T06:10:21.063Z,7.79
2023-01-18T06:12:49.162Z,7.85
2023-01-18T06:15:17.300Z,7.89
2023-01-18T06:17:46.920Z,7.85
2023-01-18T06:20:15.699Z,7.83
2023-01-18T06:22:45.722Z,7.85
2023-01-18T06:25:13.737Z,7.88
2023-01-18T06:27:42.257Z,7.85
2023-01-18T06:30:12.076Z,7.84
2023-01-18T06:32:40.015Z,7.86
2023-01-18T06:35:09.623Z,7.85
2023-01-18T06:37:37.626Z,7.87
2023-01-18T06:40:09.201Z,7.97
2023-01-18T06:42:37.130Z,8.03
2023-01-18T06:45:06.097Z,8.12
2023-01-18T06:47:34.971Z,8.26
2023-01-18T06:50:03.130Z,8.41
2023-01-18T06:52:31.040Z,8.52
2023-01-18T06:54:58.995Z,8.61
2023-01-18T06:57:28.461Z,8.67
2023-01-18T06:59:56.460Z,8.73
2023-01-18T07:02:24.428Z,8.71
2023-01-18T07:04:52.437Z,8.71
2023-01-18T07:07:20.387Z,8.76
2023-01-18T07:09:48.326Z,8.80
2023-01-18T07:12:16.431Z,8.84
2023-01-18T07:14:45.834Z,8.89
2023-01-18T07:17:13.903Z,8.88
2023-01-18T07:19:41.940Z,8.89
2023-01-18T07:22:09.868Z,8.91
2023-01-18T07:24:37.824Z,8.85
2023-01-18T07:27:06.234Z,8.89
2023-01-18T07:29:34.154Z,8.96
2023-01-18T07:32:03.643Z,8.98
2023-01-18T07:34:31.848Z,9.02
2023-01-18T07:37:01.590Z,9.07
2023-01-18T07:39:29.509Z,9.13
2023-01-18T07:41:57.509Z,9.17
2023-01-18T07:44:26.439Z,9.18
2023-01-18T07:46:54.483Z,9.21
2023-01-18T07:49:23.833Z,9.26
2023-01-18T07:51:51.807Z,9.28
2023-01-18T07:54:19.788Z,9.29
2023-01-18T07:56:47.755Z,9.30
2023-01-18T07:59:15.946Z,9.29
2023-01-18T08:01:44.041Z,9.30
2023-01-18T08:04:12.163Z,9.34
2023-01-18T08:06:41.485Z,9.36
2023-01-18T08:09:09.376Z,9.42
2023-01-18T08:11:37.394Z,9.49
2023-01-18T08:14:05.433Z,9.57
2023-01-18T08:16:33.349Z,9.69
2023-01-18T08:19:01.359Z,9.74
2023-01-18T08:21:31.071Z,9.80
2023-01-18T08:24:00.357Z,9.86
2023-01-18T08:26:28.329Z,9.85
2023-01-18T08:28:56.355Z,9.80
2023-01-18T08:31:24.447Z,9.81
2023-01-18T08:33:52.996Z,9.90
2023-01-18T08:36:22.692Z,10.01
2023-01-18T08:38:51.484Z,10.14
2023-01-18T08:41:21.429Z,10.31
2023-01-18T08:43:50.951Z,10.44
2023-01-18T08:46:19.453Z,10.52
2023-01-18T08:48:50.783Z,10.61
2023-01-18T08:51:19.193Z,10.68
2023-01-18T08:53:48.432Z,10.74
2023-01-18T08:56:16.471Z,10.89
2023-01-18T08:58:45.845Z,11.03
2023-01-18T09:01:13.850Z,11.10
2023-01-18T09:03:42.062Z,11.16
2023-01-18T09:06:12.904Z,11.22
2023-01-18T09:08:41.207Z,11.34
2023-01-18T09:11:11.769Z,11.51
2023-01-18T09:13:58.610Z,11.60
2023-01-18T09:16:29.524Z,11.74
2023-01-18T09:18:58.442Z,11.89
2023-01-18T09:21:29.162Z,12.02
2023-01-18T09:23:57.190Z,12.13
2023-01-18T09:26:25.217Z,12.20
2023-01-18T09:28:54.524Z,12.24
2023-01-18T09:31:25.536Z,12.26
2023-01-18T09:34:09.491Z,12.28
2023-01-18T09:36:45.701Z,12.32
2023-01-18T09:39:13.609Z,12.32
2023-01-18T09:41:44.428Z,12.31
2023-01-18T09:44:21.457Z,12.29
2023-01-18T09:46:54.325Z,12.29
2023-01-18T09:49:34.026Z,12.26
2023-01-18T09:52:23.618Z,12.32
2023-01-18T09:54:56.974Z,12.33
2023-01-18T09:57:38.559Z,12.17
2023-01-18T10:00:19.816Z,12.17
2023-01-18T10:02:51.783Z,12.22
2023-01-18T10:05:24.086Z,12.34
2023-01-18T10:08:03.414Z,12.48
2023-01-18T10:10:37.470Z,12.61
2023-01-18T10:13:24.388Z,12.69
2023-01-18T10:15:52.777Z,12.70
2023-01-18T10:18:21.320Z,12.73
2023-01-18T10:20:56.574Z,12.78
2023-01-18T10:23:31.397Z,12.79
2023-01-18T10:26:04.263Z,12.75
2023-01-18T10:28:45.409Z,12.67
2023-01-18T10:31:24.487Z,12.57
2023-01-18T10:33:56.476Z,12.47
2023-01-18T10:36:32.484Z,12.39
2023-01-18T10:39:04.318Z,12.36
2023-01-18T10:41:38.319Z,12.45
2023-01-18T10:44:06.722Z,12.67
2023-01-18T10:46:34.785Z,12.95
2023-01-18T10:49:03.077Z,13.27
2023-01-18T10:51:35.166Z,13.49
2023-01-18T10:54:23.252Z,13.63
2023-01-18T10:57:02.910Z,13.77
2023-01-18T10:59:37.490Z,13.84
2023-01-18T11:02:06.120Z,13.85
2023-01-18T11:04:35.150Z,13.80
2023-01-18T11:07:05.910Z,13.70
2023-01-18T11:09:43.689Z,13.61
2023-01-18T11:12:37.297Z,13.43
2023-01-18T11:15:29.744Z,13.13
2023-01-18T11:18:03.377Z,12.35
2023-01-18T11:20:34.719Z,11.86
2023-01-18T11:23:07.442Z,11.30
2023-01-18T11:25:40.975Z,11.05
2023-01-18T11:28:18.583Z,10.92
2023-01-18T11:30:53.353Z,10.89
2023-01-18T11:33:23.103Z,11.07
2023-01-18T11:35:56.522Z,11.36
2023-01-18T11:38:31.659Z,11.53
2023-01-18T11:41:15.879Z,11.59
2023-01-18T11:43:55.976Z,11.64
2023-01-18T11:46:34.798Z,11.55
2023-01-18T11:49:10.210Z,11.55
2023-01-18T11:51:45.852Z,11.37
2023-01-18T11:54:26.794Z,11.18
2023-01-18T11:56:59.637Z,10.96
2023-01-18T11:59:31.082Z,10.52
2023-01-18T12:02:35.731Z,10.17
2023-01-18T12:05:22.513Z,9.86
2023-01-18T12:08:01.865Z,9.79
2023-01-18T12:10:39.302Z,9.74
2023-01-18T12:13:22.566Z,9.73
2023-01-18T12:16:05.640Z,9.82
2023-01-18T12:18:51.608Z,10.04
2023-01-18T12:21:26.671Z,10.15
2023-01-18T12:24:08.222Z,10.12
2023-01-18T12:26:47.905Z,10.10
2023-01-18T12:29:49.490Z,10.03
2023-01-18T12:32:36.460Z,9.97
2023-01-18T12:35:25.114Z,9.95
2023-01-18T12:38:02.019Z,10.04
2023-01-18T12:40:50.762Z,10.30
2023-01-18T12:43:37.182Z,10.65
2023-01-18T12:46:09.190Z,10.86
2023-01-18T12:48:47.064Z,10.87
2023-01-18T12:51:17.942Z,10.89
2023-01-18T12:53:50.086Z,10.86
2023-01-18T12:56:22.342Z,10.78
2023-01-18T12:58:57.079Z,10.79
2023-01-18T13:01:31.397Z,10.82
2023-01-18T13:04:03.415Z,10.84
2023-01-18T13:06:32.348Z,10.88
2023-01-18T13:09:04.519Z,10.89
2023-01-18T13:11:35.946Z,10.99
2023-01-18T13:14:15.531Z,11.06
2023-01-18T13:16:49.615Z,11.08
2023-01-18T13:19:24.620Z,11.10
2023-01-18T13:22:01.289Z,11.06
2023-01-18T13:24:51.387Z,11.08
2023-01-18T13:27:20.137Z,11.02
2023-01-18T13:29:49.708Z,10.86
2023-01-18T13:32:24.221Z,10.68
2023-01-18T13:35:18.515Z,10.53
2023-01-18T13:37:50.845Z,10.46
2023-01-18T13:40:28.292Z,10.41
2023-01-18T13:42:56.395Z,10.46
2023-01-18T13:45:27.564Z,10.52
2023-01-18T13:48:02.017Z,10.64
2023-01-18T13:50:48.845Z,10.73
2023-01-18T13:53:47.697Z,10.76
2023-01-18T13:56:34.480Z,10.78
2023-01-18T13:59:18.493Z,10.80
2023-01-18T14:01:50.627Z,10.79
2023-01-18T14:04:29.562Z,10.79
2023-01-18T14:07:00.310Z,10.81
2023-01-18T14:09:40.001Z,10.82
2023-01-18T14:12:08.911Z,10.81
2023-01-18T14:14:52.865Z,10.78
2023-01-18T14:17:25.986Z,10.74
2023-01-18T14:20:08.365Z,10.71
2023-01-18T14:22:51.688Z,10.66
2023-01-18T14:25:34.128Z,10.61
2023-01-18T14:28:09.194Z,10.56
2023-01-18T14:30:41.117Z,10.52
2023-01-18T14:33:16.676Z,10.50
2023-01-18T14:35:52.456Z,10.45
2023-01-18T14:38:21.453Z,10.42
2023-01-18T14:40:52.717Z,10.40
2023-01-18T14:43:26.908Z,10.36
2023-01-18T14:45:58.828Z,10.32
2023-01-18T14:48:31.609Z,10.29
2023-01-18T14:51:00.964Z,10.24
2023-01-18T14:53:31.924Z,10.15
2023-01-18T14:56:13.709Z,10.04
2023-01-18T14:58:43.343Z,9.95
2023-01-18T15:01:27.009Z,9.83
2023-01-18T15:03:57.511Z,9.73
2023-01-18T15:06:35.819Z,9.61
2023-01-18T15:09:07.179Z,9.52
2023-01-18T15:11:36.487Z,9.42
2023-01-18T15:14:09.533Z,9.35
2023-01-18T15:16:37.643Z,9.30
2023-01-18T15:19:13.760Z,9.25
2023-01-18T15:21:41.806Z,9.21
2023-01-18T15:24:14.703Z,9.16
2023-01-18T15:26:47.042Z,9.13
2023-01-18T15:29:19.450Z,9.09
2023-01-18T15:31:50.321Z,9.06
2023-01-18T15:34:27.370Z,9.02
2023-01-18T15:36:57.054Z,8.98
2023-01-18T15:39:26.050Z,8.95
2023-01-18T15:41:56.491Z,8.90
2023-01-18T15:44:43.440Z,8.81
2023-01-18T15:47:23.803Z,8.71
2023-01-18T15:49:55.916Z,8.62
2023-01-18T15:52:44.744Z,8.49
2023-01-18T15:55:24.092Z,8.35
2023-01-18T15:57:58.136Z,8.22
2023-01-18T16:00:29.806Z,8.13
2023-01-18T16:02:58.137Z,8.06
2023-01-18T16:05:28.093Z,7.99
2023-01-18T16:08:18.862Z,7.93
2023-01-18T16:10:52.745Z,7.92
2023-01-18T16:13:40.015Z,7.90
2023-01-18T16:16:15.505Z,7.90
2023-01-18T16:18:46.204Z,7.93
2023-01-18T16:21:23.628Z,7.95
2023-01-18T16:23:53.604Z,7.98
2023-01-18T16:26:26.768Z,7.93
2023-01-18T16:28:55.023Z,7.88
2023-01-18T16:31:24.069Z,7.84
2023-01-18T16:33:52.196Z,7.85
2023-01-18T16:36:22.313Z,7.87
2023-01-18T16:38:51.102Z,7.91
2023-01-18T16:41:19.171Z,7.93
2023-01-18T16:43:48.211Z,7.88
2023-01-18T16:46:16.354Z,7.83
2023-01-18T16:48:44.538Z,7.77
2023-01-18T16:51:17.103Z,7.71
2023-01-18T16:53:48.226Z,7.65
2023-01-18T16:56:16.753Z,7.58
2023-01-18T16:58:44.828Z,7.51
2023-01-18T17:01:15.916Z,7.43
2023-01-18T17:03:44.719Z,7.36
2023-01-18T17:06:17.646Z,7.28
2023-01-18T17:08:47.673Z,7.22
2023-01-18T17:11:15.886Z,7.16
2023-01-18T17:13:44.876Z,7.13
2023-01-18T17:16:16.917Z,7.10
2023-01-18T17:18:45.365Z,7.09
2023-01-18T17:21:13.967Z,7.11
2023-01-18T17:23:41.924Z,7.12
2023-01-18T17:26:15.160Z,7.14
2023-01-18T17:28:44.123Z,7.18
2023-01-18T17:31:15.138Z,7.21
2023-01-18T17:33:43.839Z,7.23
2023-01-18T17:36:12.006Z,7.22
2023-01-18T17:38:40.190Z,7.22
2023-01-18T17:41:11.416Z,7.22
2023-01-18T17:43:43.059Z,7.19
2023-01-18T17:46:12.077Z,7.16
2023-01-18T17:48:40.354Z,7.15
2023-01-18T17:51:09.792Z,7.09
2023-01-18T17:53:38.007Z,7.11
2023-01-18T17:56:09.455Z,7.09
2023-01-18T17:58:37.477Z,7.13
2023-01-18T18:01:10.318Z,7.18
2023-01-18T18:03:38.806Z,7.15
2023-01-18T18:06:07.586Z,7.08
2023-01-18T18:08:35.752Z,7.19
2023-01-18T18:11:07.388Z,7.31
2023-01-18T18:13:35.519Z,7.40
2023-01-18T18:16:03.993Z,7.52
2023-01-18T18:18:33.423Z,7.57
2023-01-18T18:21:04.250Z,7.60
2023-01-18T18:23:33.047Z,7.61
2023-01-18T18:26:02.891Z,7.62
2023-01-18T18:28:31.974Z,7.61
2023-01-18T18:31:03.196Z,7.60
2023-01-18T18:33:33.781Z,7.59
2023-01-18T18:36:03.371Z,7.60
2023-01-18T18:38:31.354Z,7.55
2023-01-18T18:41:06.893Z,7.51
2023-01-18T18:43:34.969Z,7.56
2023-01-18T18:46:03.113Z,7.58
2023-01-18T18:48:31.549Z,7.60
2023-01-18T18:50:59.699Z,7.59
2023-01-18T18:53:37.634Z,7.57
2023-01-18T18:56:09.486Z,7.60
2023-01-18T18:58:38.194Z,7.62
2023-01-18T19:01:07.366Z,7.63
2023-01-18T19:03:36.087Z,7.61
2023-01-18T19:06:04.162Z,7.59
2023-01-18T19:08:33.461Z,7.57
2023-01-18T19:11:01.469Z,7.54
2023-01-18T19:13:29.474Z,7.53
2023-01-18T19:15:57.950Z,7.51
2023-01-18T19:18:26.020Z,7.49
2023-01-18T19:20:54.027Z,7.50
2023-01-18T19:23:22.263Z,7.50
2023-01-18T19:25:52.176Z,7.51
2023-01-18T19:28:20.562Z,7.52
2023-01-18T19:30:48.635Z,7.58
2023-01-18T19:33:17.040Z,7.62
2023-01-18T19:35:46.777Z,7.62
2023-01-18T19:38:14.788Z,7.53
2023-01-18T19:40:43.344Z,7.44
2023-01-18T19:43:12.756Z,7.36
2023-01-18T19:45:41.151Z,7.43
2023-01-18T19:48:09.191Z,7.46
2023-01-18T19:50:37.279Z,7.49
2023-01-18T19:53:05.315Z,7.58
2023-01-18T19:55:36.581Z,7.72
2023-01-18T19:58:04.650Z,7.86
2023-01-18T20:00:34.591Z,7.97
2023-01-18T20:03:03.185Z,8.04
2023-01-18T20:05:31.464Z,8.11
2023-01-18T20:07:59.468Z,8.14
2023-01-18T20:10:27.435Z,8.18
2023-01-18T20:13:03.481Z,8.19
2023-01-18T20:15:31.527Z,8.15
2023-01-18T20:18:00.919Z,8.09
2023-01-18T20:20:32.752Z,8.00
2023-01-18T20:23:04.364Z,8.00
2023-01-18T20:25:33.497Z,7.99
2023-01-18T20:28:01.787Z,7.98
2023-01-18T20:30:29.674Z,7.93
2023-01-18T20:32:58.303Z,7.88
2023-01-18T20:35:28.616Z,7.88
2023-01-18T20:37:56.699Z,7.87
2023-01-18T20:40:24.754Z,7.88
2023-01-18T20:42:52.746Z,7.92
2023-01-18T20:45:20.914Z,7.89
2023-01-18T20:47:49.005Z,7.96
2023-01-18T20:50:17.902Z,8.06
2023-01-18T20:52:47.219Z,8.15
2023-01-18T20:55:16.585Z,8.17
2023-01-18T20:57:44.620Z,8.24
2023-01-18T21:00:14.018Z,8.28
2023-01-18T21:02:42.522Z,8.37
2023-01-18T21:05:11.149Z,8.42
2023-01-18T21:07:40.803Z,8.43
2023-01-18T21:10:12.622Z,8.50
2023-01-18T21:12:41.451Z,8.53
2023-01-18T21:15:10.284Z,8.59
2023-01-18T21:17:39.750Z,8.60
2023-01-18T21:20:08.792Z,8.59
2023-01-18T21:22:36.755Z,8.60
2023-01-18T21:25:05.382Z,8.55
2023-01-18T21:27:36.692Z,8.44
2023-01-18T21:30:05.543Z,8.35
2023-01-18T21:32:33.817Z,8.33
2023-01-18T21:35:01.942Z,8.34
2023-01-18T21:37:30.020Z,8.31
2023-01-18T21:39:58.273Z,8.28
2023-01-18T21:42:43.868Z,8.25
2023-01-18T21:45:31.547Z,8.18
2023-01-18T21:48:00.988Z,8.12
2023-01-18T21:50:46.600Z,8.09
2023-01-18T21:53:32.415Z,8.10
2023-01-18T21:56:01.114Z,8.06
2023-01-18T21:58:46.430Z,8.00
2023-01-18T22:01:17.028Z,7.96
2023-01-18T22:04:02.734Z,7.95
2023-01-18T22:06:30.870Z,7.92
2023-01-18T22:08:58.847Z,7.88
2023-01-18T22:11:26.870Z,7.85
2023-01-18T22:13:54.841Z,7.90
2023-01-18T22:16:30.044Z,7.90
2023-01-18T22:18:58.912Z,7.86
2023-01-18T22:21:27.434Z,7.87
2023-01-18T22:23:55.896Z,7.86
2023-01-18T22:26:27.076Z,7.82
2023-01-18T22:28:55.120Z,7.75
2023-01-18T22:31:25.173Z,7.74
2023-01-18T22:33:53.299Z,7.70
2023-01-18T22:36:21.396Z,7.64
2023-01-18T22:38:49.394Z,7.62
2023-01-18T22:41:19.377Z,7.61
2023-01-18T22:43:47.518Z,7.54
2023-01-18T22:46:17.397Z,7.56
2023-01-18T22:48:47.439Z,7.58
2023-01-18T22:51:17.450Z,7.63
2023-01-18T22:53:46.261Z,7.61
2023-01-18T22:56:16.932Z,7.55
2023-01-18T22:58:45.203Z,7.47
2023-01-18T23:01:18.433Z,7.48
2023-01-18T23:03:48.417Z,7.45
2023-01-18T23:06:16.731Z,7.40
2023-01-18T23:08:45.869Z,7.39
2023-01-18T23:11:16.450Z,7.39
2023-01-18T23:14:07.079Z,7.31
2023-01-18T23:16:52.727Z,7.34
2023-01-18T23:19:24.066Z,7.35
2023-01-18T23:21:52.438Z,7.40
2023-01-18T23:24:20.670Z,7.40
2023-01-18T23:26:49.125Z,7.38
2023-01-18T23:29:17.445Z,7.37
2023-01-18T23:31:46.768Z,7.40
2023-01-18T23:34:15.103Z,7.45
2023-01-18T23:36:44.441Z,7.46
2023-01-18T23:39:30.376Z,7.50
2023-01-18T23:42:15.457Z,7.47
2023-01-18T23:45:00.834Z,7.41
2023-01-18T23:47:45.698Z,7.41
2023-01-18T23:50:30.973Z,7.44
2023-01-18T23:53:19.568Z,7.37
2023-01-18T23:55:47.866Z,7.23
2023-01-18T23:58:15.911Z,7.17
